sensor_id;sensor_type;location;lat;lon;timestamp;pressure;altitude;pressure_sealevel;temperature;humidity
41632;BME280;37452;51.938;4.624;2023-05-02T00:02:05;77645.22;;;-142.75;100.00
41632;BME280;37452;51.938;4.624;2023-05-02T00:04:33;77649.16;;;-142.75;100.00
41632;BME280;37452;51.938;4.624;2023-05-02T00:06:58;77635.38;;;-142.75;100.00
41632;BME280;37452;51.938;4.624;2023-05-02T00:09:23;77637.34;;;-142.75;100.00
41632;BME280;37452;51.938;4.624;2023-05-02T00:11:49;77643.25;;;-142.75;100.00
41632;BME280;37452;51.938;4.624;2023-05-02T00:14:14;77643.25;;;-142.75;100.00
41632;BME280;37452;51.938;4.624;2023-05-02T00:16:39;77641.28;;;-142.75;100.00
41632;BME280;37452;51.938;4.624;2023-05-02T00:19:05;77641.28;;;-142.75;100.00
41632;BME280;37452;51.938;4.624;2023-05-02T00:21:30;77633.41;;;-142.75;100.00
41632;BME280;37452;51.938;4.624;2023-05-02T00:23:57;77633.41;;;-142.75;100.00
41632;BME280;37452;51.938;4.624;2023-05-02T00:26:22;77653.09;;;-142.75;100.00
41632;BME280;37452;51.938;4.624;2023-05-02T00:28:47;77639.31;;;-142.75;100.00
41632;BME280;37452;51.938;4.624;2023-05-02T00:31:13;77631.44;;;-142.75;100.00
41632;BME280;37452;51.938;4.624;2023-05-02T00:33:38;77615.69;;;-142.75;100.00
41632;BME280;37452;51.938;4.624;2023-05-02T00:36:03;77619.63;;;-142.75;100.00
41632;BME280;37452;51.938;4.624;2023-05-02T00:38:29;77615.69;;;-142.75;100.00
41632;BME280;37452;51.938;4.624;2023-05-02T00:40:54;77603.88;;;-142.75;100.00
41632;BME280;37452;51.938;4.624;2023-05-02T00:43:19;77615.69;;;-142.75;100.00
41632;BME280;37452;51.938;4.624;2023-05-02T00:45:45;77613.72;;;-142.75;100.00
41632;BME280;37452;51.938;4.624;2023-05-02T00:48:10;77623.56;;;-142.75;100.00
41632;BME280;37452;51.938;4.624;2023-05-02T00:50:36;77613.72;;;-142.75;100.00
41632;BME280;37452;51.938;4.624;2023-05-02T00:53:02;77601.91;;;-142.75;100.00
41632;BME280;37452;51.938;4.624;2023-05-02T00:55:33;77611.75;;;-142.75;100.00
41632;BME280;37452;51.938;4.624;2023-05-02T00:58:00;77601.91;;;-142.75;100.00
41632;BME280;37452;51.938;4.624;2023-05-02T01:00:41;77625.53;;;-142.75;100.00
41632;BME280;37452;51.938;4.624;2023-05-02T01:05:53;77635.38;;;-142.75;100.00
41632;BME280;37452;51.938;4.624;2023-05-02T01:08:30;77645.22;;;-142.75;100.00
41632;BME280;37452;51.938;4.624;2023-05-02T01:11:01;77625.53;;;-142.75;100.00
41632;BME280;37452;51.938;4.624;2023-05-02T01:13:28;77641.28;;;-142.75;100.00
41632;BME280;37452;51.938;4.624;2023-05-02T01:15:56;77637.34;;;-142.75;100.00
41632;BME280;37452;51.938;4.624;2023-05-02T01:18:24;77639.31;;;-142.75;100.00
41632;BME280;37452;51.938;4.624;2023-05-02T01:20:58;77627.50;;;-142.75;100.00
41632;BME280;37452;51.938;4.624;2023-05-02T01:26:05;77625.53;;;-142.75;100.00
41632;BME280;37452;51.938;4.624;2023-05-02T01:31:12;77690.50;;;-142.75;100.00
41632;BME280;37452;51.938;4.624;2023-05-02T01:33:39;77696.41;;;-142.75;100.00
41632;BME280;37452;51.938;4.624;2023-05-02T01:36:06;77676.72;;;-142.75;100.00
41632;BME280;37452;51.938;4.624;2023-05-02T01:38:32;77688.53;;;-142.75;100.00
41632;BME280;37452;51.938;4.624;2023-05-02T01:40:58;77682.63;;;-142.75;100.00
41632;BME280;37452;51.938;4.624;2023-05-02T01:43:29;77720.03;;;-142.75;100.00
41632;BME280;37452;51.938;4.624;2023-05-02T01:45:55;77716.09;;;-142.75;100.00
41632;BME280;37452;51.938;4.624;2023-05-02T01:48:22;77700.34;;;-142.75;100.00
41632;BME280;37452;51.938;4.624;2023-05-02T01:50:48;77710.19;;;-142.75;100.00
41632;BME280;37452;51.938;4.624;2023-05-02T01:53:15;77718.06;;;-142.75;100.00
41632;BME280;37452;51.938;4.624;2023-05-02T01:55:42;77712.16;;;-142.75;100.00
41632;BME280;37452;51.938;4.624;2023-05-02T01:58:08;77714.13;;;-142.75;100.00
41632;BME280;37452;51.938;4.624;2023-05-02T02:00:35;77737.78;;;-142.75;100.00
41632;BME280;37452;51.938;4.624;2023-05-02T02:03:01;77743.69;;;-142.75;100.00
41632;BME280;37452;51.938;4.624;2023-05-02T02:05:28;77741.72;;;-142.75;100.00
41632;BME280;37452;51.938;4.624;2023-05-02T02:07:54;77741.72;;;-142.75;100.00
41632;BME280;37452;51.938;4.624;2023-05-02T02:10:19;77747.63;;;-142.75;100.00
41632;BME280;37452;51.938;4.624;2023-05-02T02:15:16;77755.50;;;-142.75;100.00
41632;BME280;37452;51.938;4.624;2023-05-02T02:17:42;77765.34;;;-142.75;100.00
41632;BME280;37452;51.938;4.624;2023-05-02T02:20:10;77775.19;;;-142.75;100.00
41632;BME280;37452;51.938;4.624;2023-05-02T02:22:36;77783.06;;;-142.75;100.00
41632;BME280;37452;51.938;4.624;2023-05-02T02:25:04;77781.09;;;-142.75;100.00
41632;BME280;37452;51.938;4.624;2023-05-02T02:27:30;77777.16;;;-142.75;100.00
41632;BME280;37452;51.938;4.624;2023-05-02T02:29:55;77781.09;;;-142.75;100.00
41632;BME280;37452;51.938;4.624;2023-05-02T02:32:20;77790.94;;;-142.75;100.00
41632;BME280;37452;51.938;4.624;2023-05-02T02:34:46;77812.59;;;-142.75;100.00
41632;BME280;37452;51.938;4.624;2023-05-02T02:37:15;77812.59;;;-142.75;100.00
41632;BME280;37452;51.938;4.624;2023-05-02T02:39:57;77824.41;;;-142.75;100.00
41632;BME280;37452;51.938;4.624;2023-05-02T02:42:28;77818.50;;;-142.75;100.00
41632;BME280;37452;51.938;4.624;2023-05-02T02:45:06;77840.16;;;-142.75;100.00
41632;BME280;37452;51.938;4.624;2023-05-02T02:47:43;77861.81;;;-142.75;100.00
41632;BME280;37452;51.938;4.624;2023-05-02T02:53:03;77834.25;;;-142.75;100.00
41632;BME280;37452;51.938;4.624;2023-05-02T02:58:03;77879.53;;;-142.75;100.00
41632;BME280;37452;51.938;4.624;2023-05-02T03:00:34;77877.56;;;-142.75;100.00
41632;BME280;37452;51.938;4.624;2023-05-02T03:02:59;77895.28;;;-142.75;100.00
41632;BME280;37452;51.938;4.624;2023-05-02T03:05:25;77897.25;;;-142.75;100.00
41632;BME280;37452;51.938;4.624;2023-05-02T03:07:50;77930.75;;;-142.75;100.00
41632;BME280;37452;51.938;4.624;2023-05-02T03:10:16;77916.97;;;-142.75;100.00
41632;BME280;37452;51.938;4.624;2023-05-02T03:12:41;77901.19;;;-142.75;100.00
41632;BME280;37452;51.938;4.624;2023-05-02T03:15:18;77901.19;;;-142.75;100.00
41632;BME280;37452;51.938;4.624;2023-05-02T03:17:47;77920.91;;;-142.75;100.00
41632;BME280;37452;51.938;4.624;2023-05-02T03:20:13;77926.81;;;-142.75;100.00
41632;BME280;37452;51.938;4.624;2023-05-02T03:22:38;77950.44;;;-142.75;100.00
41632;BME280;37452;51.938;4.624;2023-05-02T03:25:03;77948.47;;;-142.75;100.00
41632;BME280;37452;51.938;4.624;2023-05-02T03:27:28;77956.34;;;-142.75;100.00
41632;BME280;37452;51.938;4.624;2023-05-02T03:29:55;77944.53;;;-142.75;100.00
41632;BME280;37452;51.938;4.624;2023-05-02T03:32:21;77952.41;;;-142.75;100.00
41632;BME280;37452;51.938;4.624;2023-05-02T03:34:46;77956.34;;;-142.75;100.00
41632;BME280;37452;51.938;4.624;2023-05-02T03:37:11;77954.38;;;-142.75;100.00
41632;BME280;37452;51.938;4.624;2023-05-02T03:39:36;77974.06;;;-142.75;100.00
41632;BME280;37452;51.938;4.624;2023-05-02T03:42:01;77972.09;;;-142.75;100.00
41632;BME280;37452;51.938;4.624;2023-05-02T03:44:27;77979.97;;;-142.75;100.00
41632;BME280;37452;51.938;4.624;2023-05-02T03:46:52;77987.84;;;-142.75;100.00
41632;BME280;37452;51.938;4.624;2023-05-02T03:49:17;77979.97;;;-142.75;100.00
41632;BME280;37452;51.938;4.624;2023-05-02T03:51:43;77995.72;;;-142.75;100.00
41632;BME280;37452;51.938;4.624;2023-05-02T03:54:08;77989.81;;;-142.75;100.00
41632;BME280;37452;51.938;4.624;2023-05-02T03:56:34;77987.84;;;-142.75;100.00
41632;BME280;37452;51.938;4.624;2023-05-02T03:58:59;77978.00;;;-142.75;100.00
41632;BME280;37452;51.938;4.624;2023-05-02T04:01:25;78007.53;;;-142.75;100.00
41632;BME280;37452;51.938;4.624;2023-05-02T04:03:50;77999.66;;;-142.75;100.00
41632;BME280;37452;51.938;4.624;2023-05-02T04:06:16;77999.66;;;-142.75;100.00
41632;BME280;37452;51.938;4.624;2023-05-02T04:08:41;78011.47;;;-142.75;100.00
41632;BME280;37452;51.938;4.624;2023-05-02T04:11:09;78042.97;;;-142.75;100.00
41632;BME280;37452;51.938;4.624;2023-05-02T04:13:34;78033.13;;;-142.75;100.00
41632;BME280;37452;51.938;4.624;2023-05-02T04:16:00;78042.97;;;-142.75;100.00
41632;BME280;37452;51.938;4.624;2023-05-02T04:18:25;78031.16;;;-142.75;100.00
41632;BME280;37452;51.938;4.624;2023-05-02T04:20:50;78060.72;;;-142.75;100.00
41632;BME280;37452;51.938;4.624;2023-05-02T04:23:16;78054.81;;;-142.75;100.00
41632;BME280;37452;51.938;4.624;2023-05-02T04:25:49;78046.91;;;-142.75;100.00
41632;BME280;37452;51.938;4.624;2023-05-02T04:28:14;78050.84;;;-142.75;100.00
41632;BME280;37452;51.938;4.624;2023-05-02T04:30:39;78074.50;;;-142.75;100.00
41632;BME280;37452;51.938;4.624;2023-05-02T04:33:04;78078.44;;;-142.75;100.00
41632;BME280;37452;51.938;4.624;2023-05-02T04:35:30;78080.41;;;-142.75;100.00
41632;BME280;37452;51.938;4.624;2023-05-02T04:37:55;78084.34;;;-142.75;100.00
41632;BME280;37452;51.938;4.624;2023-05-02T04:40:20;78082.38;;;-142.75;100.00
41632;BME280;37452;51.938;4.624;2023-05-02T04:42:46;78084.34;;;-142.75;100.00
41632;BME280;37452;51.938;4.624;2023-05-02T04:45:11;78086.31;;;-142.75;100.00
41632;BME280;37452;51.938;4.624;2023-05-02T04:47:39;78086.31;;;-142.75;100.00
41632;BME280;37452;51.938;4.624;2023-05-02T04:50:04;78117.81;;;-142.75;100.00
41632;BME280;37452;51.938;4.624;2023-05-02T04:52:30;78121.75;;;-142.75;100.00
41632;BME280;37452;51.938;4.624;2023-05-02T04:54:55;78088.28;;;-142.75;100.00
41632;BME280;37452;51.938;4.624;2023-05-02T04:57:21;78092.22;;;-142.75;100.00
41632;BME280;37452;51.938;4.624;2023-05-02T04:59:46;78106.00;;;-142.75;100.00
41632;BME280;37452;51.938;4.624;2023-05-02T05:02:11;78096.16;;;-142.75;100.00
41632;BME280;37452;51.938;4.624;2023-05-02T05:04:36;78106.00;;;-142.75;100.00
41632;BME280;37452;51.938;4.624;2023-05-02T05:07:02;78109.94;;;-142.75;100.00
41632;BME280;37452;51.938;4.624;2023-05-02T05:09:28;78074.50;;;-142.75;100.00
41632;BME280;37452;51.938;4.624;2023-05-02T05:11:53;78076.47;;;-142.75;100.00
41632;BME280;37452;51.938;4.624;2023-05-02T05:14:18;78060.72;;;-142.75;100.00
41632;BME280;37452;51.938;4.624;2023-05-02T05:16:43;78050.84;;;-142.75;100.00
41632;BME280;37452;51.938;4.624;2023-05-02T05:19:09;78058.72;;;-142.75;100.00
41632;BME280;37452;51.938;4.624;2023-05-02T05:21:34;78046.91;;;-142.75;100.00
41632;BME280;37452;51.938;4.624;2023-05-02T05:24:00;78062.69;;;-142.75;100.00
41632;BME280;37452;51.938;4.624;2023-05-02T05:26:26;78074.50;;;-142.75;100.00
41632;BME280;37452;51.938;4.624;2023-05-02T05:28:51;78064.66;;;-142.75;100.00
41632;BME280;37452;51.938;4.624;2023-05-02T05:31:16;78068.59;;;-142.75;100.00
41632;BME280;37452;51.938;4.624;2023-05-02T05:33:42;78084.34;;;-142.75;100.00
41632;BME280;37452;51.938;4.624;2023-05-02T05:36:08;78078.44;;;-142.75;100.00
41632;BME280;37452;51.938;4.624;2023-05-02T05:38:34;78080.41;;;-142.75;100.00
41632;BME280;37452;51.938;4.624;2023-05-02T05:40:59;78090.25;;;-142.75;100.00
41632;BME280;37452;51.938;4.624;2023-05-02T05:43:25;78109.94;;;-142.75;100.00
41632;BME280;37452;51.938;4.624;2023-05-02T05:45:51;78135.53;;;-142.75;100.00
41632;BME280;37452;51.938;4.624;2023-05-02T05:48:16;78113.88;;;-142.75;100.00
41632;BME280;37452;51.938;4.624;2023-05-02T05:50:41;78131.59;;;-142.75;100.00
41632;BME280;37452;51.938;4.624;2023-05-02T05:53:07;78121.75;;;-142.75;100.00
41632;BME280;37452;51.938;4.624;2023-05-02T05:55:32;78113.88;;;-142.75;100.00
41632;BME280;37452;51.938;4.624;2023-05-02T05:57:57;78094.19;;;-142.75;100.00
41632;BME280;37452;51.938;4.624;2023-05-02T06:00:22;78092.22;;;-142.75;100.00
41632;BME280;37452;51.938;4.624;2023-05-02T06:02:48;78094.19;;;-142.75;100.00
41632;BME280;37452;51.938;4.624;2023-05-02T06:05:13;78090.25;;;-142.75;100.00
41632;BME280;37452;51.938;4.624;2023-05-02T06:07:38;78092.22;;;-142.75;100.00
41632;BME280;37452;51.938;4.624;2023-05-02T06:10:04;78094.19;;;-142.75;100.00
41632;BME280;37452;51.938;4.624;2023-05-02T06:12:29;78092.22;;;-142.75;100.00
41632;BME280;37452;51.938;4.624;2023-05-02T06:14:54;78098.13;;;-142.75;100.00
41632;BME280;37452;51.938;4.624;2023-05-02T06:17:20;78100.09;;;-142.75;100.00
41632;BME280;37452;51.938;4.624;2023-05-02T06:19:46;78121.75;;;-142.75;100.00
41632;BME280;37452;51.938;4.624;2023-05-02T06:22:11;78102.06;;;-142.75;100.00
41632;BME280;37452;51.938;4.624;2023-05-02T06:24:37;78094.19;;;-142.75;100.00
41632;BME280;37452;51.938;4.624;2023-05-02T06:27:02;78117.81;;;-142.75;100.00
41632;BME280;37452;51.938;4.624;2023-05-02T06:29:28;78121.75;;;-142.75;100.00
41632;BME280;37452;51.938;4.624;2023-05-02T06:31:56;78100.09;;;-142.75;100.00
41632;BME280;37452;51.938;4.624;2023-05-02T06:34:21;78058.72;;;-142.75;100.00
41632;BME280;37452;51.938;4.624;2023-05-02T06:36:46;78019.34;;;-142.75;100.00
41632;BME280;37452;51.938;4.624;2023-05-02T06:39:11;78035.09;;;-142.75;100.00
41632;BME280;37452;51.938;4.624;2023-05-02T06:41:37;78007.53;;;-142.75;100.00
41632;BME280;37452;51.938;4.624;2023-05-02T06:44:02;78042.97;;;-142.75;100.00
41632;BME280;37452;51.938;4.624;2023-05-02T06:46:28;78066.63;;;-142.75;100.00
41632;BME280;37452;51.938;4.624;2023-05-02T06:48:54;78058.72;;;-142.75;100.00
41632;BME280;37452;51.938;4.624;2023-05-02T06:51:19;78062.69;;;-142.75;100.00
41632;BME280;37452;51.938;4.624;2023-05-02T06:53:46;78078.44;;;-142.75;100.00
41632;BME280;37452;51.938;4.624;2023-05-02T06:56:11;78086.31;;;-142.75;100.00
41632;BME280;37452;51.938;4.624;2023-05-02T06:58:36;78094.19;;;-142.75;100.00
41632;BME280;37452;51.938;4.624;2023-05-02T07:01:02;78106.00;;;-142.75;100.00
41632;BME280;37452;51.938;4.624;2023-05-02T07:03:27;78082.38;;;-142.75;100.00
41632;BME280;37452;51.938;4.624;2023-05-02T07:05:52;78096.16;;;-142.75;100.00
41632;BME280;37452;51.938;4.624;2023-05-02T07:08:17;78078.44;;;-142.75;100.00
41632;BME280;37452;51.938;4.624;2023-05-02T07:10:45;78066.63;;;-142.75;100.00
41632;BME280;37452;51.938;4.624;2023-05-02T07:13:10;78086.31;;;-142.75;100.00
41632;BME280;37452;51.938;4.624;2023-05-02T07:15:35;78111.91;;;-142.75;100.00
41632;BME280;37452;51.938;4.624;2023-05-02T07:18:00;78070.56;;;-142.75;100.00
41632;BME280;37452;51.938;4.624;2023-05-02T07:20:26;78046.91;;;-142.75;100.00
41632;BME280;37452;51.938;4.624;2023-05-02T07:22:51;78056.78;;;-142.75;100.00
41632;BME280;37452;51.938;4.624;2023-05-02T07:25:16;78015.41;;;-142.75;100.00
41632;BME280;37452;51.938;4.624;2023-05-02T07:27:41;77983.91;;;-142.75;100.00
41632;BME280;37452;51.938;4.624;2023-05-02T07:30:07;77907.09;;;-142.75;100.00
41632;BME280;37452;51.938;4.624;2023-05-02T07:32:32;77883.47;;;-142.75;100.00
41632;BME280;37452;51.938;4.624;2023-05-02T07:34:57;77879.53;;;-142.75;100.00
41632;BME280;37452;51.938;4.624;2023-05-02T07:37:22;77881.50;;;-142.75;100.00
41632;BME280;37452;51.938;4.624;2023-05-02T07:39:47;77903.16;;;-142.75;100.00
41632;BME280;37452;51.938;4.624;2023-05-02T07:42:13;77918.94;;;-142.75;100.00
41632;BME280;37452;51.938;4.624;2023-05-02T07:44:38;77897.25;;;-142.75;100.00
41632;BME280;37452;51.938;4.624;2023-05-02T07:47:03;77869.69;;;-142.75;100.00
41632;BME280;37452;51.938;4.624;2023-05-02T07:49:29;77818.50;;;-142.75;100.00
41632;BME280;37452;51.938;4.624;2023-05-02T07:51:55;77816.53;;;-142.75;100.00
41632;BME280;37452;51.938;4.624;2023-05-02T07:54:20;77857.88;;;-142.75;100.00
41632;BME280;37452;51.938;4.624;2023-05-02T07:56:46;77920.91;;;-142.75;100.00
41632;BME280;37452;51.938;4.624;2023-05-02T07:59:12;77964.22;;;-142.75;100.00
41632;BME280;37452;51.938;4.624;2023-05-02T08:01:37;77932.72;;;-142.75;100.00
41632;BME280;37452;51.938;4.624;2023-05-02T08:04:02;77940.59;;;-142.75;100.00
41632;BME280;37452;51.938;4.624;2023-05-02T08:06:28;77938.63;;;-142.75;100.00
41632;BME280;37452;51.938;4.624;2023-05-02T08:08:54;77930.75;;;-142.75;100.00
41632;BME280;37452;51.938;4.624;2023-05-02T08:11:20;77885.44;;;-142.75;100.00
41632;BME280;37452;51.938;4.624;2023-05-02T08:13:46;77881.50;;;-142.75;100.00
41632;BME280;37452;51.938;4.624;2023-05-02T08:16:11;77871.66;;;-142.75;100.00
41632;BME280;37452;51.938;4.624;2023-05-02T08:18:37;77861.81;;;-142.75;98.75
41632;BME280;37452;51.938;4.624;2023-05-02T08:21:02;77842.13;;;-142.75;100.00
41632;BME280;37452;51.938;4.624;2023-05-02T08:23:27;77842.13;;;-142.75;97.30
41632;BME280;37452;51.938;4.624;2023-05-02T08:25:53;77867.72;;;-142.75;93.46
41632;BME280;37452;51.938;4.624;2023-05-02T08:28:18;77899.22;;;-142.75;95.92
41632;BME280;37452;51.938;4.624;2023-05-02T08:30:43;77863.78;;;-142.75;92.69
41632;BME280;37452;51.938;4.624;2023-05-02T08:33:09;77879.53;;;-142.75;89.75
41632;BME280;37452;51.938;4.624;2023-05-02T08:35:34;77879.53;;;-142.75;89.63
41632;BME280;37452;51.938;4.624;2023-05-02T08:38:00;77928.78;;;-142.75;88.90
41632;BME280;37452;51.938;4.624;2023-05-02T08:40:25;77944.53;;;-142.75;87.61
41632;BME280;37452;51.938;4.624;2023-05-02T08:42:51;77936.66;;;-142.75;90.90
41632;BME280;37452;51.938;4.624;2023-05-02T08:45:16;77962.25;;;-142.75;91.22
41632;BME280;37452;51.938;4.624;2023-05-02T08:47:42;77989.81;;;-142.75;85.84
41632;BME280;37452;51.938;4.624;2023-05-02T08:50:11;77930.75;;;-142.75;85.92
41632;BME280;37452;51.938;4.624;2023-05-02T08:52:39;77897.25;;;-142.75;84.89
41632;BME280;37452;51.938;4.624;2023-05-02T08:55:07;77922.88;;;-142.75;83.13
41632;BME280;37452;51.938;4.624;2023-05-02T08:57:33;77948.47;;;-142.75;83.69
41632;BME280;37452;51.938;4.624;2023-05-02T08:59:58;77952.41;;;-142.75;81.88
41632;BME280;37452;51.938;4.624;2023-05-02T09:04:53;77909.06;;;-142.75;83.29
41632;BME280;37452;51.938;4.624;2023-05-02T09:07:18;77883.47;;;-142.75;82.50
41632;BME280;37452;51.938;4.624;2023-05-02T09:09:43;77850.00;;;-142.75;81.91
41632;BME280;37452;51.938;4.624;2023-05-02T09:12:08;77787.00;;;-142.75;78.21
41632;BME280;37452;51.938;4.624;2023-05-02T09:14:34;77763.38;;;-142.75;77.57
41632;BME280;37452;51.938;4.624;2023-05-02T09:16:59;77727.94;;;-142.75;77.33
41632;BME280;37452;51.938;4.624;2023-05-02T09:19:25;77696.41;;;-142.75;77.08
41632;BME280;37452;51.938;4.624;2023-05-02T09:21:58;77631.44;;;-142.75;74.26
41632;BME280;37452;51.938;4.624;2023-05-02T09:24:24;77603.88;;;-142.75;73.16
41632;BME280;37452;51.938;4.624;2023-05-02T09:26:56;77523.16;;;-142.75;73.00
41632;BME280;37452;51.938;4.624;2023-05-02T09:29:22;77511.34;;;-142.75;71.22
41632;BME280;37452;51.938;4.624;2023-05-02T09:31:47;77511.34;;;-142.75;71.34
41632;BME280;37452;51.938;4.624;2023-05-02T09:34:14;77491.66;;;-142.75;73.43
41632;BME280;37452;51.938;4.624;2023-05-02T09:36:40;77574.34;;;-142.75;68.12
41632;BME280;37452;51.938;4.624;2023-05-02T09:39:09;77590.09;;;-142.75;69.37
41632;BME280;37452;51.938;4.624;2023-05-02T09:41:38;77637.34;;;-142.75;73.63
41632;BME280;37452;51.938;4.624;2023-05-02T09:44:03;77609.78;;;-142.75;73.18
41632;BME280;37452;51.938;4.624;2023-05-02T09:46:38;77540.88;;;-142.75;70.83
41632;BME280;37452;51.938;4.624;2023-05-02T09:49:03;77533.00;;;-142.75;70.52
41632;BME280;37452;51.938;4.624;2023-05-02T09:51:28;77558.59;;;-142.75;68.28
41632;BME280;37452;51.938;4.624;2023-05-02T09:53:54;77550.72;;;-142.75;69.23
41632;BME280;37452;51.938;4.624;2023-05-02T09:56:19;77529.06;;;-142.75;68.71
41632;BME280;37452;51.938;4.624;2023-05-02T09:58:45;77479.84;;;-142.75;68.86
41632;BME280;37452;51.938;4.624;2023-05-02T10:01:17;77489.69;;;-142.75;64.60
41632;BME280;37452;51.938;4.624;2023-05-02T10:03:45;77607.81;;;-142.75;68.86
41632;BME280;37452;51.938;4.624;2023-05-02T10:06:10;77617.66;;;-142.75;67.23
41632;BME280;37452;51.938;4.624;2023-05-02T10:08:36;77558.59;;;-142.75;72.14
41632;BME280;37452;51.938;4.624;2023-05-02T10:11:03;77574.34;;;-142.75;70.86
41632;BME280;37452;51.938;4.624;2023-05-02T10:13:29;77594.03;;;-142.75;69.17
41632;BME280;37452;51.938;4.624;2023-05-02T10:16:00;77621.59;;;-142.75;70.22
41632;BME280;37452;51.938;4.624;2023-05-02T10:18:39;77633.41;;;-142.75;68.06
41632;BME280;37452;51.938;4.624;2023-05-02T10:21:07;77562.53;;;-142.75;68.23
41632;BME280;37452;51.938;4.624;2023-05-02T10:23:32;77511.34;;;-142.75;63.73
41632;BME280;37452;51.938;4.624;2023-05-02T10:25:58;77485.75;;;-142.75;63.44
41632;BME280;37452;51.938;4.624;2023-05-02T10:28:25;77452.25;;;-142.75;65.54
41632;BME280;37452;51.938;4.624;2023-05-02T10:30:50;77450.28;;;-142.75;66.27
41632;BME280;37452;51.938;4.624;2023-05-02T10:33:16;77464.09;;;-142.75;65.80
41632;BME280;37452;51.938;4.624;2023-05-02T10:35:43;77499.53;;;-142.75;60.87
41632;BME280;37452;51.938;4.624;2023-05-02T10:38:10;77499.53;;;-142.75;62.43
41632;BME280;37452;51.938;4.624;2023-05-02T10:40:37;77566.47;;;-142.75;66.08
41632;BME280;37452;51.938;4.624;2023-05-02T10:43:02;77657.03;;;-142.75;65.26
41632;BME280;37452;51.938;4.624;2023-05-02T10:50:47;77601.91;;;-142.75;68.11
41632;BME280;37452;51.938;4.624;2023-05-02T10:53:26;77566.47;;;-142.75;61.07
41632;BME280;37452;51.938;4.624;2023-05-02T10:58:35;77408.94;;;-142.75;62.30
41632;BME280;37452;51.938;4.624;2023-05-02T11:06:26;77401.06;;;-142.75;62.09
41632;BME280;37452;51.938;4.624;2023-05-02T11:08:52;77375.47;;;-142.75;56.98
41632;BME280;37452;51.938;4.624;2023-05-02T11:19:19;77383.34;;;-142.75;52.22
41632;BME280;37452;51.938;4.624;2023-05-02T11:21:45;77377.44;;;-142.75;51.25
41632;BME280;37452;51.938;4.624;2023-05-02T11:27:00;77361.69;;;-142.75;56.87
41632;BME280;37452;51.938;4.624;2023-05-02T11:29:50;77379.41;;;-142.75;53.34
41632;BME280;37452;51.938;4.624;2023-05-02T11:32:15;77361.69;;;-142.75;48.69
41632;BME280;37452;51.938;4.624;2023-05-02T11:34:40;77416.81;;;-142.75;55.35
41632;BME280;37452;51.938;4.624;2023-05-02T11:37:09;77495.59;;;-142.75;55.75
41632;BME280;37452;51.938;4.624;2023-05-02T11:39:35;77405.00;;;-142.75;58.27
41632;BME280;37452;51.938;4.624;2023-05-02T11:42:00;77369.56;;;-142.75;61.23
41632;BME280;37452;51.938;4.624;2023-05-02T11:44:25;77365.63;;;-142.75;54.53
41632;BME280;37452;51.938;4.624;2023-05-02T11:46:52;77410.91;;;-142.75;58.73
41632;BME280;37452;51.938;4.624;2023-05-02T11:49:17;77385.31;;;-142.75;57.18
41632;BME280;37452;51.938;4.624;2023-05-02T11:51:42;77361.69;;;-142.75;59.18
41632;BME280;37452;51.938;4.624;2023-05-02T11:54:08;77357.75;;;-142.75;58.58
41632;BME280;37452;51.938;4.624;2023-05-02T11:56:34;77391.22;;;-142.75;57.67
41632;BME280;37452;51.938;4.624;2023-05-02T11:59:02;77416.81;;;-142.75;56.37
41632;BME280;37452;51.938;4.624;2023-05-02T12:01:28;77440.44;;;-142.75;58.10
41632;BME280;37452;51.938;4.624;2023-05-02T12:04:03;77432.56;;;-142.75;57.63
41632;BME280;37452;51.938;4.624;2023-05-02T12:06:29;77373.50;;;-142.75;60.52
41632;BME280;37452;51.938;4.624;2023-05-02T12:09:05;77438.47;;;-142.75;60.07
41632;BME280;37452;51.938;4.624;2023-05-02T12:11:30;77503.47;;;-142.75;61.24
41632;BME280;37452;51.938;4.624;2023-05-02T12:13:55;77499.53;;;-142.75;63.39
41632;BME280;37452;51.938;4.624;2023-05-02T12:16:21;77408.94;;;-142.75;57.34
41632;BME280;37452;51.938;4.624;2023-05-02T12:18:46;77426.66;;;-142.75;55.45
41632;BME280;37452;51.938;4.624;2023-05-02T12:21:12;77440.44;;;-142.75;60.50
41632;BME280;37452;51.938;4.624;2023-05-02T12:23:38;77448.34;;;-142.75;59.57
41632;BME280;37452;51.938;4.624;2023-05-02T12:28:47;77385.31;;;-142.75;61.00
41632;BME280;37452;51.938;4.624;2023-05-02T12:31:13;77397.13;;;-142.75;58.64
41632;BME280;37452;51.938;4.624;2023-05-02T12:33:42;77383.34;;;-142.75;58.81
41632;BME280;37452;51.938;4.624;2023-05-02T12:36:10;77401.06;;;-142.75;55.33
41632;BME280;37452;51.938;4.624;2023-05-02T12:38:35;77322.31;;;-142.75;59.02
41632;BME280;37452;51.938;4.624;2023-05-02T12:41:00;77322.31;;;-142.75;57.88
41632;BME280;37452;51.938;4.624;2023-05-02T12:43:26;77410.91;;;-142.75;55.49
41632;BME280;37452;51.938;4.624;2023-05-02T12:45:57;77389.25;;;-142.75;54.49
41632;BME280;37452;51.938;4.624;2023-05-02T12:48:32;77349.88;;;-142.75;57.31
41632;BME280;37452;51.938;4.624;2023-05-02T12:50:58;77406.97;;;-142.75;54.50
41632;BME280;37452;51.938;4.624;2023-05-02T12:53:39;77444.38;;;-142.75;54.80
41632;BME280;37452;51.938;4.624;2023-05-02T12:56:05;77397.13;;;-142.75;59.54
41632;BME280;37452;51.938;4.624;2023-05-02T12:58:38;77424.69;;;-142.75;58.76
41632;BME280;37452;51.938;4.624;2023-05-02T13:01:04;77432.56;;;-142.75;52.21
41632;BME280;37452;51.938;4.624;2023-05-02T13:03:31;77418.78;;;-142.75;52.14
41632;BME280;37452;51.938;4.624;2023-05-02T13:05:56;77422.72;;;-142.75;56.48
41632;BME280;37452;51.938;4.624;2023-05-02T13:08:21;77460.13;;;-142.75;55.42
41632;BME280;37452;51.938;4.624;2023-05-02T13:10:47;77534.97;;;-142.75;56.76
41632;BME280;37452;51.938;4.624;2023-05-02T13:13:12;77503.47;;;-142.75;60.25
41632;BME280;37452;51.938;4.624;2023-05-02T13:15:38;77546.78;;;-142.75;59.02